Time;durP1;ratioP1;P1;durP2;ratioP2;P2;SDS_P1;SDS_P2;PMS_P1;PMS_P2;Temp;Humidity;BMP_temperature;BMP_pressure;BME280_temperature;BME280_humidity;BME280_pressure;Samples;Min_cycle;Max_cycle;Signal;HPM_P1;HPM_P2
2023/03/02 00:01:47;;;;;;;44.97;24.23;;;4.20;65.40;;;;;;4936885;29;20710;-79
2023/03/02 00:04:21;;;;;;;37.90;21.30;;;4.20;65.40;;;;;;4934112;29;20690;-80
2023/03/02 00:06:52;;;;;;;39.47;21.60;;;4.20;65.40;;;;;;4933085;29;20314;-80
2023/03/02 00:09:20;;;;;;;44.30;23.50;;;4.10;65.40;;;;;;4919825;29;20223;-80
2023/03/02 00:11:48;;;;;;;37.80;23.35;;;4.10;65.40;;;;;;4925450;29;20224;-79
2023/03/02 00:14:15;;;;;;;39.15;23.88;;;4.10;65.40;;;;;;4938071;29;20200;-80
2023/03/02 00:16:43;;;;;;;41.20;22.70;;;4.10;65.50;;;;;;4925651;29;20212;-78
2023/03/02 00:19:11;;;;;;;43.60;22.95;;;4.10;65.50;;;;;;4930898;29;20205;-78
2023/03/02 00:21:40;;;;;;;41.08;24.02;;;4.10;65.50;;;;;;4935116;29;20204;-78
2023/03/02 00:24:09;;;;;;;37.50;21.88;;;4.10;65.50;;;;;;4941117;29;20200;-78
2023/03/02 00:26:37;;;;;;;41.42;22.30;;;4.10;65.60;;;;;;4929969;29;20213;-79
2023/03/02 00:29:05;;;;;;;39.72;23.20;;;4.10;65.70;;;;;;4928277;29;20299;-79
2023/03/02 00:31:33;;;;;;;40.95;24.55;;;4.10;65.70;;;;;;4935696;29;20216;-79
2023/03/02 00:34:01;;;;;;;38.72;22.80;;;4.10;65.70;;;;;;4924167;29;20856;-80
2023/03/02 00:36:29;;;;;;;41.10;24.63;;;4.00;65.70;;;;;;4934416;29;20834;-78
2023/03/02 00:38:58;;;;;;;41.20;24.08;;;4.10;65.70;;;;;;4937796;29;20204;-79
2023/03/02 00:41:26;;;;;;;42.63;22.67;;;4.00;65.70;;;;;;4914073;29;20215;-78
2023/03/02 00:43:54;;;;;;;36.70;21.90;;;4.00;65.70;;;;;;4930900;29;20196;-77
2023/03/02 00:46:24;;;;;;;38.53;22.67;;;4.00;65.70;;;;;;4940678;29;20247;-77
2023/03/02 00:48:52;;;;;;;41.08;24.25;;;4.00;65.70;;;;;;4934619;29;20208;-77
2023/03/02 00:51:21;;;;;;;41.85;25.05;;;4.00;65.70;;;;;;4933470;29;20213;-78
2023/03/02 00:53:49;;;;;;;36.58;21.40;;;3.90;65.80;;;;;;4933909;29;20220;-76
2023/03/02 00:56:18;;;;;;;39.47;21.60;;;3.90;65.80;;;;;;4920243;29;20210;-78
2023/03/02 00:58:49;;;;;;;48.03;26.10;;;3.90;65.90;;;;;;4935872;29;20423;-78
2023/03/02 01:01:18;;;;;;;52.05;26.30;;;3.80;65.90;;;;;;4926539;29;20272;-79
2023/03/02 01:03:49;;;;;;;45.65;22.45;;;3.80;65.90;;;;;;4930723;29;20806;-78
2023/03/02 01:06:21;;;;;;;49.22;28.02;;;3.80;65.90;;;;;;4921833;29;20258;-79
2023/03/02 01:08:49;;;;;;;51.38;27.42;;;3.80;66.00;;;;;;4937953;29;20219;-76
2023/03/02 01:11:22;;;;;;;88.85;37.22;;;3.80;65.90;;;;;;4926304;29;20244;-79
2023/03/02 01:13:51;;;;;;;71.40;33.03;;;3.80;66.00;;;;;;4929839;28;20224;-79
2023/03/02 01:16:19;;;;;;;51.30;24.80;;;3.70;65.90;;;;;;4934428;29;20216;-79
2023/03/02 01:18:47;;;;;;;39.83;22.35;;;3.70;65.90;;;;;;4930271;29;20915;-79
2023/03/02 01:21:16;;;;;;;45.58;24.95;;;3.60;66.00;;;;;;4924716;29;20213;-80
2023/03/02 01:23:44;;;;;;;46.97;27.85;;;3.60;66.10;;;;;;4931156;29;20650;-79
2023/03/02 01:26:12;;;;;;;45.80;24.50;;;3.60;66.10;;;;;;4935617;29;20234;-78
2023/03/02 01:28:41;;;;;;;50.47;26.73;;;3.60;66.10;;;;;;4929101;29;20228;-79
2023/03/02 01:31:09;;;;;;;54.60;28.45;;;3.60;66.10;;;;;;4931089;29;20238;-79
2023/03/02 01:33:37;;;;;;;82.35;40.63;;;3.50;66.10;;;;;;4931203;29;20267;-79
2023/03/02 01:36:06;;;;;;;68.25;33.85;;;3.50;66.20;;;;;;4926532;29;20664;-79
2023/03/02 01:38:34;;;;;;;64.15;32.72;;;3.50;66.30;;;;;;4933495;29;20676;-79
2023/03/02 01:41:02;;;;;;;54.58;29.13;;;3.50;66.50;;;;;;4935053;29;20870;-80
2023/03/02 01:43:30;;;;;;;51.65;26.35;;;3.50;66.30;;;;;;4934255;29;20222;-81
2023/03/02 01:46:03;;;;;;;50.22;24.63;;;3.50;66.50;;;;;;4920240;29;20585;-81
2023/03/02 01:48:57;;;;;;;40.38;23.45;;;3.50;66.50;;;;;;4913915;29;20213;-80
2023/03/02 01:51:45;;;;;;;42.00;23.17;;;3.50;66.50;;;;;;4928473;29;20208;-80
2023/03/02 01:54:21;;;;;;;35.67;20.95;;;3.50;66.60;;;;;;4934660;29;20208;-80
2023/03/02 01:56:58;;;;;;;42.13;23.50;;;3.50;66.60;;;;;;4932556;29;20276;-81
2023/03/02 01:59:30;;;;;;;34.58;19.75;;;3.40;66.50;;;;;;4917152;29;20204;-79
2023/03/02 02:02:03;;;;;;;37.83;21.45;;;3.40;66.60;;;;;;4913974;29;20232;-79
2023/03/02 02:04:34;;;;;;;41.88;23.70;;;3.40;66.70;;;;;;4922540;29;20998;-79
2023/03/02 02:07:04;;;;;;;41.83;23.13;;;3.40;66.60;;;;;;4924405;29;20208;-79
2023/03/02 02:09:37;;;;;;;33.90;20.60;;;3.30;66.50;;;;;;4928816;29;20291;-78
2023/03/02 02:12:05;;;;;;;47.30;23.95;;;3.30;66.50;;;;;;4911859;29;20771;-80
2023/03/02 02:14:36;;;;;;;45.80;23.90;;;3.20;66.50;;;;;;4921323;29;20256;-81
2023/03/02 02:17:05;;;;;;;39.80;21.88;;;3.20;66.50;;;;;;4929394;29;20207;-78
2023/03/02 02:19:53;;;;;;;37.60;21.35;;;3.10;66.60;;;;;;4932985;29;20206;-80
2023/03/02 02:22:31;;;;;;;39.55;21.05;;;3.10;66.60;;;;;;4928093;29;20562;-81
2023/03/02 02:25:06;;;;;;;41.10;23.08;;;3.00;66.60;;;;;;4933216;28;20207;-81
2023/03/02 02:27:35;;;;;;;37.88;21.77;;;3.00;66.70;;;;;;4924515;29;20813;-81
2023/03/02 02:30:06;;;;;;;37.60;21.80;;;2.90;66.70;;;;;;4914694;29;20212;-79
2023/03/02 02:32:37;;;;;;;41.00;21.88;;;2.90;66.80;;;;;;4915871;29;20776;-80
2023/03/02 02:35:12;;;;;;;38.10;21.23;;;2.80;67.00;;;;;;4930562;29;20212;-80
2023/03/02 02:37:44;;;;;;;42.92;22.67;;;2.80;67.10;;;;;;4928682;29;20213;-80
2023/03/02 02:40:20;;;;;;;37.25;21.60;;;2.80;67.20;;;;;;4932318;29;20204;-79
2023/03/02 02:42:52;;;;;;;37.15;21.90;;;2.80;67.20;;;;;;4931134;29;20311;-79
2023/03/02 02:45:24;;;;;;;37.15;21.45;;;2.80;67.20;;;;;;4942622;29;20714;-79
2023/03/02 02:47:54;;;;;;;36.33;20.30;;;2.80;67.20;;;;;;4936093;29;20212;-78
2023/03/02 02:50:25;;;;;;;41.85;22.60;;;2.80;67.30;;;;;;4940087;29;20235;-79
2023/03/02 02:52:59;;;;;;;41.67;21.95;;;2.80;67.40;;;;;;4932344;29;20312;-79
2023/03/02 02:55:27;;;;;;;37.60;20.35;;;2.80;67.40;;;;;;4940060;29;20211;-80
2023/03/02 02:57:59;;;;;;;38.78;21.48;;;2.80;67.40;;;;;;4931087;29;20212;-79
2023/03/02 03:00:27;;;;;;;39.53;21.75;;;2.80;67.50;;;;;;4938249;29;20232;-80
2023/03/02 03:03:01;;;;;;;42.42;22.23;;;2.80;67.60;;;;;;4931459;29;20212;-79
2023/03/02 03:05:29;;;;;;;40.30;20.75;;;2.80;67.70;;;;;;4920856;29;20301;-80
2023/03/02 03:08:31;;;;;;;38.90;23.20;;;2.90;67.80;;;;;;4920751;29;20216;-79
2023/03/02 03:10:59;;;;;;;39.15;21.67;;;2.90;67.70;;;;;;4922400;29;20227;-79
2023/03/02 03:13:28;;;;;;;37.85;21.65;;;2.90;67.70;;;;;;4924746;29;20201;-79
2023/03/02 03:15:57;;;;;;;37.63;21.02;;;2.90;67.70;;;;;;4933210;29;20200;-79
2023/03/02 03:18:26;;;;;;;33.17;19.67;;;3.00;67.80;;;;;;4937455;29;20204;-80
2023/03/02 03:20:54;;;;;;;38.67;22.90;;;3.00;67.80;;;;;;4927183;29;20209;-80
2023/03/02 03:23:23;;;;;;;36.28;19.30;;;3.00;67.80;;;;;;4936944;29;20208;-80
2023/03/02 03:25:51;;;;;;;35.13;19.98;;;3.00;67.90;;;;;;4935772;29;20930;-80
2023/03/02 03:28:19;;;;;;;32.60;18.45;;;3.00;68.00;;;;;;4915248;29;20233;-79
2023/03/02 03:30:48;;;;;;;40.17;22.50;;;3.10;67.90;;;;;;4911042;29;20311;-80
2023/03/02 03:33:17;;;;;;;42.63;21.70;;;3.10;67.80;;;;;;4930783;29;20617;-80
2023/03/02 03:35:45;;;;;;;35.30;18.95;;;3.10;67.90;;;;;;4935334;29;20546;-79
2023/03/02 03:38:13;;;;;;;34.70;20.33;;;3.20;67.80;;;;;;4933516;29;20192;-79
2023/03/02 03:40:42;;;;;;;38.30;19.58;;;3.20;67.70;;;;;;4936473;29;20212;-79
2023/03/02 03:43:11;;;;;;;42.05;19.98;;;3.20;67.70;;;;;;4924105;29;20283;-80
2023/03/02 03:45:40;;;;;;;38.53;21.50;;;3.20;67.70;;;;;;4914652;29;20735;-82
2023/03/02 03:48:09;;;;;;;33.38;19.50;;;3.20;67.50;;;;;;4937010;29;20216;-79
2023/03/02 03:50:38;;;;;;;33.42;20.00;;;3.10;67.50;;;;;;4937089;29;20223;-79
2023/03/02 03:53:06;;;;;;;35.80;20.77;;;3.10;67.50;;;;;;4934231;29;20205;-80
2023/03/02 03:55:40;;;;;;;36.17;20.70;;;3.10;67.50;;;;;;4937807;29;20207;-79
2023/03/02 03:58:08;;;;;;;35.85;19.83;;;3.00;67.70;;;;;;4913367;29;20242;-79
2023/03/02 04:00:37;;;;;;;37.13;20.65;;;3.00;67.70;;;;;;4926464;29;20235;-80
2023/03/02 04:03:12;;;;;;;35.10;19.60;;;3.00;67.80;;;;;;4914046;29;20208;-79
2023/03/02 04:05:41;;;;;;;42.13;20.80;;;3.10;67.70;;;;;;4931924;29;20207;-79
2023/03/02 04:08:10;;;;;;;36.03;19.65;;;3.10;67.70;;;;;;4937244;29;20211;-79
2023/03/02 04:10:39;;;;;;;42.83;21.77;;;3.10;67.70;;;;;;4921150;29;20267;-81
2023/03/02 04:13:07;;;;;;;41.33;22.38;;;3.10;67.70;;;;;;4916928;29;20203;-80
2023/03/02 04:15:36;;;;;;;52.17;27.63;;;3.10;67.60;;;;;;4930717;29;20206;-82
2023/03/02 04:18:05;;;;;;;41.85;23.60;;;3.00;67.50;;;;;;4914117;29;20208;-80
2023/03/02 04:20:36;;;;;;;38.95;20.80;;;3.00;67.50;;;;;;4933412;29;20252;-79
2023/03/02 04:23:06;;;;;;;39.42;21.25;;;2.90;67.50;;;;;;4934104;29;20254;-80
2023/03/02 04:25:34;;;;;;;41.47;23.30;;;2.90;67.70;;;;;;4939378;29;20329;-78
2023/03/02 04:28:15;;;;;;;47.97;23.25;;;2.90;67.80;;;;;;4926266;29;20219;-80
2023/03/02 04:30:45;;;;;;;43.15;22.98;;;2.90;67.90;;;;;;4934443;29;20242;-80
2023/03/02 04:33:13;;;;;;;44.25;22.23;;;2.90;67.90;;;;;;4918324;29;20216;-79
2023/03/02 04:35:42;;;;;;;36.97;20.25;;;3.00;67.90;;;;;;4925478;29;20346;-81
2023/03/02 04:38:10;;;;;;;37.50;20.20;;;3.00;67.80;;;;;;4920904;29;20205;-80
2023/03/02 04:40:38;;;;;;;36.75;20.52;;;3.00;67.80;;;;;;4938945;29;20306;-82
2023/03/02 04:43:07;;;;;;;37.60;21.55;;;3.00;67.80;;;;;;4922694;29;20204;-81
2023/03/02 04:45:36;;;;;;;38.50;21.75;;;3.00;67.70;;;;;;4935776;29;20212;-79
2023/03/02 04:48:05;;;;;;;34.80;20.67;;;2.90;67.70;;;;;;4924427;29;20216;-78
2023/03/02 04:50:33;;;;;;;34.30;18.98;;;2.90;67.70;;;;;;4928333;29;20236;-79
2023/03/02 04:53:03;;;;;;;37.10;20.70;;;2.90;67.80;;;;;;4925834;29;20228;-80
2023/03/02 04:55:33;;;;;;;37.90;19.63;;;2.90;67.80;;;;;;4940764;29;20220;-80
2023/03/02 04:58:01;;;;;;;39.65;20.40;;;2.90;67.80;;;;;;4920186;29;20204;-80
2023/03/02 05:00:34;;;;;;;35.92;20.02;;;2.90;67.80;;;;;;4924662;29;20295;-78
2023/03/02 05:03:03;;;;;;;34.38;20.42;;;2.90;67.70;;;;;;4920328;29;20200;-80
2023/03/02 05:05:32;;;;;;;38.20;21.13;;;2.80;67.70;;;;;;4936100;29;20220;-80
2023/03/02 05:08:00;;;;;;;33.35;20.30;;;2.80;67.70;;;;;;4934131;29;20204;-80
2023/03/02 05:10:29;;;;;;;33.17;18.35;;;2.80;67.60;;;;;;4921335;29;20228;-78
2023/03/02 05:13:03;;;;;;;36.05;19.77;;;2.80;67.70;;;;;;4931273;29;20320;-78
2023/03/02 05:15:34;;;;;;;35.50;21.33;;;2.70;67.50;;;;;;4933359;29;20208;-78
2023/03/02 05:18:03;;;;;;;35.05;19.90;;;2.60;67.50;;;;;;4930241;29;20192;-77
2023/03/02 05:20:31;;;;;;;37.35;20.40;;;2.60;67.60;;;;;;4931966;29;20200;-78
2023/03/02 05:23:01;;;;;;;36.47;20.40;;;2.60;67.60;;;;;;4934057;29;20539;-78
2023/03/02 05:25:33;;;;;;;36.00;20.55;;;2.50;67.70;;;;;;4942408;29;20229;-78
2023/03/02 05:28:01;;;;;;;40.70;19.08;;;2.50;67.80;;;;;;4932048;29;20207;-78
2023/03/02 05:30:31;;;;;;;37.47;19.50;;;2.50;67.80;;;;;;4928986;29;20223;-79
2023/03/02 05:32:59;;;;;;;36.53;20.30;;;2.50;67.90;;;;;;4933741;29;20274;-80
2023/03/02 05:35:27;;;;;;;41.75;19.70;;;2.60;67.90;;;;;;4932912;29;20267;-79
2023/03/02 05:37:55;;;;;;;39.85;20.85;;;2.60;68.00;;;;;;4928797;29;20840;-79
2023/03/02 05:40:22;;;;;;;39.35;20.20;;;2.70;68.00;;;;;;4934459;29;20259;-79
2023/03/02 05:42:52;;;;;;;46.10;20.75;;;2.70;68.00;;;;;;4937351;29;20254;-80
2023/03/02 05:45:23;;;;;;;38.75;22.83;;;2.70;68.00;;;;;;4929217;29;20216;-80
2023/03/02 05:47:51;;;;;;;41.70;22.67;;;2.70;67.90;;;;;;4934201;29;20205;-79
2023/03/02 05:50:19;;;;;;;34.10;20.13;;;2.70;67.80;;;;;;4930020;29;20216;-79
2023/03/02 05:52:47;;;;;;;40.95;19.83;;;2.60;67.90;;;;;;4930504;29;20207;-79
2023/03/02 05:55:17;;;;;;;39.25;21.65;;;2.60;67.90;;;;;;4936988;29;20212;-79
2023/03/02 05:57:48;;;;;;;40.03;22.10;;;2.60;67.90;;;;;;4932631;29;20215;-79
2023/03/02 06:00:19;;;;;;;37.38;21.63;;;2.60;67.80;;;;;;4923811;29;20205;-79
2023/03/02 06:02:47;;;;;;;38.50;21.35;;;2.50;67.80;;;;;;4932445;29;20686;-79
2023/03/02 06:05:18;;;;;;;44.03;21.63;;;2.50;67.90;;;;;;4930901;29;20602;-79
2023/03/02 06:07:46;;;;;;;43.20;21.65;;;2.50;67.90;;;;;;4930798;29;20219;-81
2023/03/02 06:10:14;;;;;;;36.70;20.23;;;2.50;67.90;;;;;;4921285;29;20220;-81
2023/03/02 06:12:43;;;;;;;39.30;21.00;;;2.50;68.00;;;;;;4931226;29;20572;-81
2023/03/02 06:15:13;;;;;;;37.60;21.25;;;2.50;68.00;;;;;;4929069;29;20200;-79
2023/03/02 06:17:42;;;;;;;39.65;21.15;;;2.50;68.00;;;;;;4927521;29;20555;-80
2023/03/02 06:20:11;;;;;;;36.75;20.23;;;2.50;68.10;;;;;;4935804;29;21015;-80
2023/03/02 06:22:41;;;;;;;35.40;18.83;;;2.50;68.20;;;;;;4931380;29;20249;-80
2023/03/02 06:25:10;;;;;;;36.95;19.88;;;2.60;68.20;;;;;;4923894;29;20208;-80
2023/03/02 06:27:45;;;;;;;42.25;20.63;;;2.60;68.20;;;;;;4931787;29;20207;-80
2023/03/02 06:30:16;;;;;;;39.10;21.02;;;2.60;68.20;;;;;;4921495;29;20220;-79
2023/03/02 06:32:45;;;;;;;36.65;20.40;;;2.60;68.20;;;;;;4927370;29;20212;-80
2023/03/02 06:35:13;;;;;;;37.05;20.85;;;2.70;68.20;;;;;;4923107;29;20261;-80
2023/03/02 06:37:42;;;;;;;36.85;20.80;;;2.70;68.30;;;;;;4933430;29;20204;-80
2023/03/02 06:40:12;;;;;;;36.85;20.52;;;2.70;68.30;;;;;;4933303;29;20220;-80
2023/03/02 06:42:42;;;;;;;39.55;20.90;;;2.70;68.30;;;;;;4914750;29;20315;-80
2023/03/02 06:45:11;;;;;;;39.15;21.10;;;2.70;68.40;;;;;;4936791;29;20208;-79
2023/03/02 06:47:39;;;;;;;39.78;20.45;;;2.80;68.40;;;;;;4934888;29;20211;-79
2023/03/02 06:50:10;;;;;;;39.53;20.73;;;2.80;68.50;;;;;;4926720;29;20217;-81
2023/03/02 06:52:39;;;;;;;34.40;19.48;;;2.80;68.50;;;;;;4932074;29;20205;-81
2023/03/02 06:55:08;;;;;;;37.05;20.90;;;2.90;68.50;;;;;;4916670;29;20206;-81
2023/03/02 06:57:36;;;;;;;36.65;20.00;;;2.90;68.60;;;;;;4930535;29;20209;-81
2023/03/02 07:00:08;;;;;;;41.92;22.73;;;2.90;68.50;;;;;;4921958;29;20212;-81
2023/03/02 07:02:37;;;;;;;40.17;22.83;;;2.90;68.60;;;;;;4922504;29;20320;-81
2023/03/02 07:05:06;;;;;;;43.83;24.90;;;2.90;68.60;;;;;;4920478;29;20567;-81
2023/03/02 07:07:35;;;;;;;74.32;33.78;;;3.00;68.70;;;;;;4935383;29;20204;-82
2023/03/02 07:10:04;;;;;;;154.30;57.58;;;3.00;68.80;;;;;;4927899;29;20553;-81
2023/03/02 07:12:32;;;;;;;215.02;75.72;;;3.10;68.80;;;;;;4926420;29;20574;-81
2023/03/02 07:15:00;;;;;;;177.13;61.08;;;3.10;68.90;;;;;;4938828;29;20595;-81
2023/03/02 07:17:28;;;;;;;145.00;52.85;;;3.20;68.90;;;;;;4931611;29;20207;-81
2023/03/02 07:19:56;;;;;;;76.43;33.00;;;3.30;69.00;;;;;;4927717;29;21233;-81
2023/03/02 07:22:24;;;;;;;61.75;30.98;;;3.30;68.90;;;;;;4919234;29;20200;-81
2023/03/02 07:24:53;;;;;;;58.95;30.10;;;3.40;68.90;;;;;;4928881;29;20200;-81
2023/03/02 07:27:21;;;;;;;59.00;27.30;;;3.40;68.90;;;;;;4940030;29;20278;-81
2023/03/02 07:29:49;;;;;;;39.05;22.60;;;3.50;69.00;;;;;;4938013;29;20205;-81
2023/03/02 07:32:17;;;;;;;38.65;21.08;;;3.50;69.00;;;;;;4928525;29;20243;-80
2023/03/02 07:34:45;;;;;;;36.63;20.83;;;3.60;69.00;;;;;;4933966;29;20205;-81
2023/03/02 07:37:17;;;;;;;39.08;21.65;;;3.60;69.00;;;;;;4921333;29;20212;-81
2023/03/02 07:39:46;;;;;;;41.13;20.65;;;3.60;69.20;;;;;;4939783;29;20782;-81
2023/03/02 07:42:17;;;;;;;40.20;21.23;;;3.70;69.20;;;;;;4931135;29;20216;-81
2023/03/02 07:44:52;;;;;;;35.40;19.63;;;3.70;69.30;;;;;;4939933;29;21003;-80
2023/03/02 07:47:20;;;;;;;36.63;20.25;;;3.70;69.40;;;;;;4933395;29;20264;-81
2023/03/02 07:49:48;;;;;;;35.92;19.98;;;3.80;69.60;;;;;;4934399;29;20204;-81
2023/03/02 07:52:16;;;;;;;38.08;21.00;;;3.90;69.50;;;;;;4931257;29;20225;-82
2023/03/02 07:54:44;;;;;;;31.70;18.45;;;3.90;69.60;;;;;;4939638;29;20259;-81
2023/03/02 07:57:15;;;;;;;38.65;20.30;;;4.00;69.60;;;;;;4936538;29;20201;-81
2023/03/02 07:59:44;;;;;;;35.33;19.90;;;4.00;69.60;;;;;;4905358;29;20209;-81
2023/03/02 08:02:14;;;;;;;35.58;19.33;;;4.10;69.60;;;;;;4912347;29;20228;-81
2023/03/02 08:04:43;;;;;;;34.65;18.90;;;4.10;69.70;;;;;;4936099;29;20230;-81
2023/03/02 08:07:11;;;;;;;39.00;20.33;;;4.10;69.80;;;;;;4939783;29;20213;-81
2023/03/02 08:09:40;;;;;;;34.20;19.65;;;4.20;69.70;;;;;;4934020;29;20550;-80
2023/03/02 08:12:08;;;;;;;32.25;18.27;;;4.20;69.70;;;;;;4928421;29;20216;-81
2023/03/02 08:14:36;;;;;;;43.88;23.65;;;4.30;69.70;;;;;;4931278;29;20199;-81
2023/03/02 08:17:06;;;;;;;55.35;28.35;;;4.40;69.70;;;;;;4932868;29;20633;-80
2023/03/02 08:19:34;;;;;;;50.78;24.70;;;4.40;69.70;;;;;;4929000;29;20204;-80
2023/03/02 08:22:02;;;;;;;56.30;29.35;;;4.50;69.70;;;;;;4929296;29;20201;-80
2023/03/02 08:24:30;;;;;;;38.88;21.60;;;4.50;69.80;;;;;;4923328;29;20201;-81
2023/03/02 08:27:01;;;;;;;37.47;22.17;;;4.60;69.80;;;;;;4929731;29;20655;-80
2023/03/02 08:29:29;;;;;;;42.70;22.35;;;4.70;69.70;;;;;;4926585;29;20212;-82
2023/03/02 08:31:57;;;;;;;33.25;19.70;;;4.70;69.70;;;;;;4937050;29;20710;-81
2023/03/02 08:34:27;;;;;;;31.55;18.38;;;4.80;69.70;;;;;;4929692;29;20935;-80
2023/03/02 08:36:55;;;;;;;33.25;19.50;;;4.80;69.70;;;;;;4907990;29;20225;-81
2023/03/02 08:39:23;;;;;;;32.88;17.63;;;4.90;69.60;;;;;;4930955;29;20709;-81
2023/03/02 08:41:52;;;;;;;33.28;17.80;;;4.90;69.60;;;;;;4932282;29;20217;-80
2023/03/02 08:44:21;;;;;;;38.67;19.38;;;5.10;69.50;;;;;;4929775;29;20655;-80
2023/03/02 08:46:49;;;;;;;34.92;18.45;;;5.10;69.40;;;;;;4923260;29;20215;-81
2023/03/02 08:49:18;;;;;;;36.88;19.13;;;5.10;69.40;;;;;;4931408;29;20217;-81
2023/03/02 08:51:52;;;;;;;35.35;17.48;;;5.20;69.40;;;;;;4938350;29;20608;-80
2023/03/02 08:54:20;;;;;;;31.30;16.45;;;5.30;69.30;;;;;;4929854;29;20225;-82
2023/03/02 08:56:49;;;;;;;31.50;16.58;;;5.30;69.30;;;;;;4927347;29;20722;-80
2023/03/02 08:59:17;;;;;;;29.92;16.80;;;5.40;69.20;;;;;;4928500;29;20216;-80
2023/03/02 09:01:45;;;;;;;29.05;16.35;;;5.50;69.00;;;;;;4939822;29;20256;-81
2023/03/02 09:04:13;;;;;;;28.15;14.63;;;5.50;68.90;;;;;;4927794;29;20212;-81
2023/03/02 09:06:43;;;;;;;29.52;16.40;;;5.70;68.90;;;;;;4931071;29;20210;-81
2023/03/02 09:09:14;;;;;;;27.83;16.08;;;5.70;68.80;;;;;;4938400;29;20208;-82
2023/03/02 09:11:43;;;;;;;32.42;17.23;;;5.70;68.90;;;;;;4937549;29;20249;-80
2023/03/02 09:14:11;;;;;;;30.88;16.02;;;5.80;68.90;;;;;;4933607;29;20297;-80
2023/03/02 09:16:39;;;;;;;28.00;15.60;;;5.80;68.80;;;;;;4931084;29;20210;-81
2023/03/02 09:19:07;;;;;;;34.30;16.52;;;5.90;68.70;;;;;;4929035;29;20288;-81
2023/03/02 09:21:35;;;;;;;33.17;17.30;;;6.00;68.60;;;;;;4931356;29;20194;-81
2023/03/02 09:24:03;;;;;;;31.55;16.95;;;6.10;68.60;;;;;;4931335;29;20214;-80
2023/03/02 09:26:33;;;;;;;33.97;15.55;;;6.10;68.60;;;;;;4927966;29;20203;-81
2023/03/02 09:29:01;;;;;;;33.22;17.58;;;6.20;68.40;;;;;;4939551;29;20206;-80
2023/03/02 09:31:29;;;;;;;30.10;15.98;;;6.20;68.30;;;;;;4914780;29;20242;-81
2023/03/02 09:33:57;;;;;;;29.20;15.98;;;6.30;68.30;;;;;;4931080;29;20198;-80
2023/03/02 09:36:26;;;;;;;28.20;17.27;;;6.40;68.30;;;;;;4927027;28;20216;-81
2023/03/02 09:38:55;;;;;;;31.58;18.80;;;6.40;68.30;;;;;;4935673;29;20258;-81
2023/03/02 09:41:52;;;;;;;33.03;17.90;;;6.50;68.30;;;;;;4922800;29;20238;-80
2023/03/02 09:44:42;;;;;;;30.95;16.35;;;6.50;68.20;;;;;;4938538;29;20265;-80
2023/03/02 09:47:18;;;;;;;29.02;16.65;;;6.60;68.10;;;;;;4932168;29;20278;-80
2023/03/02 09:50:11;;;;;;;28.92;17.23;;;6.60;68.10;;;;;;4928348;29;20661;-80
2023/03/02 09:52:45;;;;;;;26.58;16.20;;;6.70;67.80;;;;;;4929196;29;20230;-80
2023/03/02 09:55:16;;;;;;;27.45;16.33;;;6.80;67.70;;;;;;4916385;29;20215;-81
2023/03/02 09:57:45;;;;;;;28.55;14.82;;;6.80;67.70;;;;;;4917768;29;20215;-81
2023/03/02 10:00:19;;;;;;;32.40;15.37;;;6.90;67.70;;;;;;4933842;29;20219;-80
2023/03/02 10:02:50;;;;;;;28.85;16.13;;;7.00;67.50;;;;;;4933664;29;20522;-81
2023/03/02 10:05:23;;;;;;;30.35;17.73;;;7.00;67.50;;;;;;4943279;29;20265;-80
2023/03/02 10:07:51;;;;;;;29.48;17.80;;;7.10;67.20;;;;;;4915576;29;20561;-81
2023/03/02 10:10:26;;;;;;;32.50;17.70;;;7.10;67.20;;;;;;4927763;29;20218;-80
2023/03/02 10:13:08;;;;;;;32.13;18.02;;;7.20;67.20;;;;;;4911960;29;20833;-81
2023/03/02 10:15:41;;;;;;;32.72;16.52;;;7.20;67.20;;;;;;4923821;29;20202;-81
2023/03/02 10:18:19;;;;;;;26.13;16.27;;;7.20;67.10;;;;;;4918743;29;20216;-80
2023/03/02 10:20:54;;;;;;;24.48;14.60;;;7.30;67.00;;;;;;4917088;29;20674;-80
2023/03/02 10:23:43;;;;;;;37.15;19.45;;;7.30;67.00;;;;;;4938601;29;20187;-81
2023/03/02 10:26:29;;;;;;;28.58;14.75;;;7.40;67.00;;;;;;4905726;29;20212;-80
2023/03/02 10:29:03;;;;;;;24.23;14.07;;;7.40;67.00;;;;;;4926056;29;20628;-80
2023/03/02 10:31:33;;;;;;;22.63;14.20;;;7.50;67.00;;;;;;4917039;29;20281;-80
2023/03/02 10:34:01;;;;;;;30.77;15.55;;;7.50;66.90;;;;;;4921941;29;20479;-80
2023/03/02 10:36:32;;;;;;;29.75;15.75;;;7.60;66.90;;;;;;4933291;29;20210;-82
2023/03/02 10:39:02;;;;;;;27.88;14.63;;;7.60;66.70;;;;;;4924910;29;20256;-80
2023/03/02 10:41:34;;;;;;;24.55;14.88;;;7.60;66.80;;;;;;4927138;29;20220;-80
2023/03/02 10:44:06;;;;;;;28.70;14.90;;;7.70;66.70;;;;;;4934620;29;20196;-80
2023/03/02 10:46:46;;;;;;;32.50;15.35;;;7.70;66.70;;;;;;4939860;29;20866;-81
2023/03/02 10:49:25;;;;;;;24.98;15.80;;;7.80;66.50;;;;;;4934674;29;20197;-81
2023/03/02 10:52:00;;;;;;;26.95;15.25;;;7.90;66.70;;;;;;4930235;29;20200;-81
2023/03/02 10:54:29;;;;;;;30.10;13.90;;;7.90;66.20;;;;;;4908785;29;20222;-81
2023/03/02 10:57:00;;;;;;;21.97;13.57;;;8.00;66.50;;;;;;4927115;29;20452;-80
2023/03/02 10:59:42;;;;;;;30.73;15.00;;;8.10;66.10;;;;;;4913749;29;20464;-79
2023/03/02 11:02:18;;;;;;;28.20;14.43;;;8.10;66.20;;;;;;4935838;29;20508;-81
2023/03/02 11:04:46;;;;;;;29.90;13.90;;;8.20;66.00;;;;;;4933368;29;20231;-80
2023/03/02 11:07:17;;;;;;;27.93;14.53;;;8.20;65.70;;;;;;4918062;29;20964;-81
2023/03/02 11:10:00;;;;;;;27.83;16.40;;;8.30;66.10;;;;;;4917789;29;20465;-81
2023/03/02 11:12:30;;;;;;;31.93;14.60;;;8.30;65.80;;;;;;4936802;29;20499;-81
2023/03/02 11:15:16;;;;;;;29.30;14.20;;;8.40;65.90;;;;;;4917605;29;20985;-81
2023/03/02 11:17:47;;;;;;;21.60;13.43;;;8.40;65.60;;;;;;4936739;29;20455;-80
2023/03/02 11:20:20;;;;;;;22.87;13.13;;;8.50;65.50;;;;;;4921610;29;20483;-81
2023/03/02 11:22:56;;;;;;;37.30;15.13;;;8.50;65.40;;;;;;4918511;29;21114;-81
2023/03/02 11:25:28;;;;;;;24.30;13.83;;;8.60;65.30;;;;;;4919301;29;20865;-81
2023/03/02 11:28:01;;;;;;;31.30;13.40;;;8.60;65.40;;;;;;4929775;29;20464;-81
2023/03/02 11:30:33;;;;;;;26.80;14.43;;;8.60;65.30;;;;;;4937584;29;20462;-81
2023/03/02 11:33:08;;;;;;;24.07;13.87;;;8.60;65.30;;;;;;4928393;29;20468;-81
2023/03/02 11:35:42;;;;;;;22.63;12.30;;;8.60;65.30;;;;;;4938946;29;20514;-81
2023/03/02 11:38:18;;;;;;;23.20;12.73;;;8.70;65.40;;;;;;4941552;29;20450;-80
2023/03/02 11:40:51;;;;;;;25.03;13.60;;;8.70;65.30;;;;;;4934600;29;21195;-80
2023/03/02 11:43:19;;;;;;;23.13;14.20;;;8.80;65.20;;;;;;4933186;29;20559;-81
2023/03/02 11:45:58;;;;;;;32.97;15.10;;;8.80;65.10;;;;;;4930199;29;20461;-80
2023/03/02 11:48:33;;;;;;;27.63;14.63;;;8.90;65.10;;;;;;4933126;29;20449;-80
2023/03/02 11:51:04;;;;;;;26.77;14.80;;;8.90;64.90;;;;;;4924664;29;20448;-80
2023/03/02 11:53:43;;;;;;;27.60;14.83;;;8.90;65.00;;;;;;4923955;29;20473;-81
2023/03/02 11:56:11;;;;;;;23.63;13.10;;;8.90;65.00;;;;;;4927931;29;20451;-80
2023/03/02 11:58:41;;;;;;;35.97;13.37;;;9.00;65.20;;;;;;4931257;29;20463;-81
2023/03/02 12:01:31;;;;;;;27.67;14.00;;;9.10;64.90;;;;;;4920187;29;20491;-80
2023/03/02 12:04:10;;;;;;;26.17;14.70;;;9.20;64.70;;;;;;4913379;29;20461;-83
2023/03/02 12:06:40;;;;;;;21.73;12.37;;;9.20;64.60;;;;;;4932448;29;20883;-82
2023/03/02 12:09:33;;;;;;;29.00;11.87;;;9.30;64.50;;;;;;4931017;29;20462;-83
2023/03/02 12:12:26;;;;;;;23.30;12.23;;;9.30;64.50;;;;;;4932449;29;20448;-82
2023/03/02 12:14:54;;;;;;;31.43;13.00;;;9.30;64.40;;;;;;4927355;29;20476;-80
2023/03/02 12:17:31;;;;;;;25.67;11.80;;;9.40;64.70;;;;;;4930313;29;21253;-80
2023/03/02 12:20:25;;;;;;;22.23;11.43;;;9.40;64.50;;;;;;4934018;29;20546;-81
2023/03/02 12:22:54;;;;;;;23.30;11.67;;;9.60;64.60;;;;;;4912990;29;20456;-81
2023/03/02 12:37:57;;;;;;;18.87;11.53;;;9.70;63.90;;;;;;4927109;29;20843;-80
2023/03/02 12:40:39;;;;;;;26.27;11.67;;;9.70;64.10;;;;;;4937542;29;21382;-80
2023/03/02 12:43:25;;;;;;;22.97;11.90;;;9.80;63.90;;;;;;4928795;29;20456;-81
2023/03/02 12:46:27;;;;;;;26.73;10.30;;;9.80;63.90;;;;;;4926155;29;20452;-81
2023/03/02 12:49:10;;;;;;;23.07;10.90;;;9.90;63.80;;;;;;4938044;29;20797;-81
2023/03/02 12:51:48;;;;;;;20.67;11.03;;;9.90;63.70;;;;;;4925850;29;20460;-81
2023/03/02 12:54:19;;;;;;;21.20;11.60;;;9.90;63.70;;;;;;4942574;29;20472;-82
2023/03/02 12:56:47;;;;;;;25.33;10.43;;;9.90;63.70;;;;;;4931437;29;20511;-80
2023/03/02 12:59:22;;;;;;;23.00;12.30;;;10.00;63.60;;;;;;4924991;29;20457;-80
2023/03/02 13:01:50;;;;;;;28.33;13.30;;;10.00;63.50;;;;;;4924066;29;20474;-81
2023/03/02 13:04:26;;;;;;;27.27;11.20;;;10.10;63.50;;;;;;4919489;29;20461;-80
2023/03/02 13:06:54;;;;;;;23.53;11.93;;;10.20;63.30;;;;;;4932950;29;20462;-81
2023/03/02 13:09:24;;;;;;;19.10;10.47;;;10.20;63.30;;;;;;4928605;29;20464;-80